createdAt,value
2018-05-13T00:02:10.165Z,16.30
2018-05-13T00:04:37.749Z,16.30
2018-05-13T00:07:06.257Z,16.30
2018-05-13T00:09:33.750Z,16.20
2018-05-13T00:12:01.296Z,16.20
2018-05-13T00:14:28.825Z,16.10
2018-05-13T00:16:56.377Z,16.10
2018-05-13T00:19:23.897Z,16.20
2018-05-13T00:21:51.428Z,16.10
2018-05-13T00:24:19.062Z,16.10
2018-05-13T00:26:46.538Z,16.10
2018-05-13T00:29:14.158Z,16.00
2018-05-13T00:31:42.431Z,16.10
2018-05-13T00:34:09.986Z,16.10
2018-05-13T00:36:37.573Z,16.10
2018-05-13T00:39:05.824Z,16.00
2018-05-13T00:41:34.348Z,15.90
2018-05-13T00:44:01.897Z,15.90
2018-05-13T00:46:29.411Z,16.00
2018-05-13T00:48:57.722Z,15.90
2018-05-13T00:51:25.315Z,15.90
2018-05-13T00:53:52.924Z,15.90
2018-05-13T00:56:20.425Z,15.90
2018-05-13T00:58:47.958Z,15.90
2018-05-13T01:01:15.529Z,15.90
2018-05-13T01:03:43.029Z,15.90
2018-05-13T01:06:11.319Z,15.90
2018-05-13T01:08:39.583Z,16.00
2018-05-13T01:11:07.894Z,16.00
2018-05-13T01:13:35.404Z,15.90
2018-05-13T01:16:03.016Z,15.90
2018-05-13T01:18:31.152Z,15.90
2018-05-13T01:20:59.455Z,16.00
2018-05-13T01:23:27.093Z,16.00
2018-05-13T01:25:55.476Z,16.20
2018-05-13T01:28:23.012Z,16.10
2018-05-13T01:30:50.580Z,16.20
2018-05-13T01:33:18.091Z,16.20
2018-05-13T01:35:45.602Z,16.30
2018-05-13T01:38:13.895Z,16.20
2018-05-13T01:40:41.656Z,16.20
2018-05-13T01:43:10.367Z,16.20
2018-05-13T01:45:37.872Z,16.30
2018-05-13T01:48:06.188Z,16.30
2018-05-13T01:50:33.690Z,16.30
2018-05-13T01:53:01.247Z,16.30
2018-05-13T01:55:28.796Z,16.30
2018-05-13T01:57:56.498Z,16.30
2018-05-13T02:00:24.765Z,16.40
2018-05-13T02:02:53.091Z,16.50
2018-05-13T02:05:20.627Z,16.50
2018-05-13T02:07:48.276Z,16.40
2018-05-13T02:10:16.596Z,16.40
2018-05-13T02:12:44.127Z,16.40
2018-05-13T02:15:11.691Z,16.50
2018-05-13T02:17:39.221Z,16.70
2018-05-13T02:20:07.504Z,16.70
2018-05-13T02:22:35.288Z,16.70
2018-05-13T02:25:02.845Z,16.60
2018-05-13T02:27:30.362Z,16.50
2018-05-13T02:29:57.933Z,16.30
2018-05-13T02:32:26.236Z,16.20
2018-05-13T02:34:53.760Z,16.20
2018-05-13T02:37:22.170Z,15.90
2018-05-13T02:39:49.689Z,15.90
2018-05-13T02:42:18.151Z,15.70
2018-05-13T02:44:45.678Z,15.60
2018-05-13T02:47:13.190Z,15.70
2018-05-13T02:49:41.500Z,15.40
2018-05-13T02:52:09.025Z,15.40
2018-05-13T02:54:37.377Z,15.70
2018-05-13T02:57:04.861Z,15.60
2018-05-13T02:59:33.169Z,15.50
2018-05-13T03:02:00.695Z,15.40
2018-05-13T03:04:29.009Z,15.60
2018-05-13T03:06:56.519Z,15.60
2018-05-13T03:09:24.803Z,15.40
2018-05-13T03:14:27.122Z,15.40
2018-05-13T03:16:54.620Z,15.40
2018-05-13T03:19:22.234Z,15.50
2018-05-13T03:21:49.740Z,15.40
2018-05-13T03:24:17.326Z,15.30
2018-05-13T03:26:45.608Z,15.40
2018-05-13T03:29:13.115Z,15.30
2018-05-13T03:31:40.647Z,15.50
2018-05-13T03:34:08.144Z,15.50
2018-05-13T03:36:35.692Z,15.40
2018-05-13T03:39:03.197Z,15.50
2018-05-13T03:41:30.741Z,15.40
2018-05-13T03:43:59.033Z,15.50
2018-05-13T03:46:26.566Z,15.50
2018-05-13T03:48:54.872Z,15.30
2018-05-13T03:51:22.511Z,15.30
2018-05-13T03:53:50.801Z,15.40
2018-05-13T03:56:18.533Z,15.40
2018-05-13T03:58:46.077Z,15.40
2018-05-13T04:01:13.600Z,15.40
2018-05-13T04:03:41.152Z,15.40
2018-05-13T04:06:08.661Z,15.50
2018-05-13T04:08:48.841Z,15.50
2018-05-13T04:11:28.232Z,15.50
2018-05-13T04:14:09.313Z,15.70
2018-05-13T04:16:36.880Z,15.60
2018-05-13T04:19:05.205Z,15.50
2018-05-13T04:21:32.704Z,15.50
2018-05-13T04:24:00.234Z,15.50
2018-05-13T04:26:27.953Z,15.50
2018-05-13T04:28:56.297Z,15.60
2018-05-13T04:31:23.799Z,15.60
2018-05-13T04:33:52.084Z,15.60
2018-05-13T04:36:19.668Z,15.60
2018-05-13T04:38:47.181Z,15.70
2018-05-13T04:41:15.476Z,15.60
2018-05-13T04:43:42.999Z,15.60
2018-05-13T04:46:10.508Z,15.70
2018-05-13T04:48:38.108Z,15.80
2018-05-13T04:51:05.649Z,15.80
2018-05-13T04:53:33.187Z,15.80
2018-05-13T04:56:00.764Z,15.90
2018-05-13T04:58:28.276Z,15.90
2018-05-13T05:00:55.869Z,15.90
2018-05-13T05:03:23.384Z,15.80
2018-05-13T05:05:51.762Z,15.90
2018-05-13T05:08:20.040Z,15.80
2018-05-13T05:10:48.320Z,15.70
2018-05-13T05:13:15.854Z,15.70
2018-05-13T05:15:43.433Z,15.80
2018-05-13T05:18:11.779Z,16.00
2018-05-13T05:20:39.399Z,16.00
2018-05-13T05:23:06.936Z,16.00
2018-05-13T05:25:35.246Z,16.00
2018-05-13T05:28:02.763Z,16.00
2018-05-13T05:30:31.057Z,16.10
2018-05-13T05:32:58.564Z,16.10
2018-05-13T05:35:26.133Z,16.20
2018-05-13T05:37:53.717Z,16.20
2018-05-13T05:40:21.265Z,16.10
2018-05-13T05:42:49.563Z,16.10
2018-05-13T05:45:17.057Z,16.10
2018-05-13T05:47:44.628Z,15.90
2018-05-13T05:50:12.133Z,16.10
2018-05-13T05:52:39.657Z,16.20
2018-05-13T05:55:07.279Z,16.20
2018-05-13T05:57:34.896Z,16.10
2018-05-13T06:00:03.196Z,16.20
2018-05-13T06:02:30.709Z,16.20
2018-05-13T06:04:58.241Z,16.10
2018-05-13T06:07:25.774Z,16.20
2018-05-13T06:09:53.277Z,16.20
2018-05-13T06:12:20.845Z,16.20
2018-05-13T06:14:48.311Z,16.20
2018-05-13T06:17:16.686Z,16.30
2018-05-13T06:19:44.982Z,16.30
2018-05-13T06:22:13.276Z,16.30
2018-05-13T06:24:40.797Z,16.30
2018-05-13T06:27:09.088Z,16.30
2018-05-13T06:29:36.770Z,16.30
2018-05-13T06:32:04.303Z,16.30
2018-05-13T06:34:31.833Z,16.20
2018-05-13T06:36:59.374Z,16.10
2018-05-13T06:39:26.911Z,16.20
2018-05-13T06:41:54.429Z,16.10
2018-05-13T06:44:22.717Z,16.20
2018-05-13T06:46:50.471Z,16.20
2018-05-13T06:49:18.774Z,16.10
2018-05-13T06:51:46.308Z,16.10
2018-05-13T06:54:13.841Z,16.10
2018-05-13T06:56:41.503Z,16.00
2018-05-13T06:59:09.934Z,15.90
2018-05-13T07:01:37.445Z,15.90
2018-05-13T07:04:05.850Z,15.70
2018-05-13T07:06:33.516Z,15.70
2018-05-13T07:09:01.021Z,15.80
2018-05-13T07:11:28.565Z,15.80
2018-05-13T07:13:56.135Z,15.80
2018-05-13T07:16:23.738Z,15.70
2018-05-13T07:18:52.004Z,15.50
2018-05-13T07:21:20.321Z,15.50
2018-05-13T07:23:47.946Z,15.50
2018-05-13T07:26:15.572Z,15.50
2018-05-13T07:28:43.164Z,15.30
2018-05-13T07:31:11.505Z,15.10
2018-05-13T07:33:39.102Z,15.10
2018-05-13T07:36:06.710Z,15.10
2018-05-13T07:38:34.297Z,15.10
2018-05-13T07:41:01.881Z,15.10
2018-05-13T07:43:30.351Z,15.00
2018-05-13T07:45:57.840Z,15.00
2018-05-13T07:48:25.465Z,14.90
2018-05-13T07:50:53.923Z,14.90
2018-05-13T07:53:22.161Z,14.90
2018-05-13T07:55:49.754Z,14.90
2018-05-13T07:58:17.376Z,14.90
2018-05-13T08:00:45.748Z,14.70
2018-05-13T08:03:13.378Z,14.70
2018-05-13T08:05:41.672Z,14.80
2018-05-13T08:08:09.227Z,14.80
2018-05-13T08:10:36.832Z,14.90
2018-05-13T08:13:04.443Z,14.90
2018-05-13T08:15:32.757Z,14.90
2018-05-13T08:18:00.335Z,14.90
2018-05-13T08:20:28.020Z,14.90
2018-05-13T08:22:55.618Z,15.00
2018-05-13T08:25:23.219Z,15.00
2018-05-13T08:27:51.068Z,14.90
2018-05-13T08:30:18.694Z,15.00
2018-05-13T08:32:46.353Z,15.10
2018-05-13T08:35:14.025Z,15.10
2018-05-13T08:37:41.775Z,15.00
2018-05-13T08:40:09.433Z,15.10
2018-05-13T08:42:37.837Z,15.20
2018-05-13T08:45:05.409Z,15.20
2018-05-13T08:47:32.988Z,15.30
2018-05-13T08:50:00.604Z,15.30
2018-05-13T08:52:28.211Z,15.30
2018-05-13T08:54:55.941Z,15.40
2018-05-13T08:57:23.545Z,15.30
2018-05-13T08:59:51.956Z,15.40
2018-05-13T09:02:19.612Z,15.40
2018-05-13T09:04:47.445Z,15.30
2018-05-13T09:07:15.102Z,15.30
2018-05-13T09:09:42.699Z,15.20
2018-05-13T09:12:10.387Z,15.10
2018-05-13T09:14:37.958Z,15.00
2018-05-13T09:17:05.933Z,15.10
2018-05-13T09:19:33.477Z,15.00
2018-05-13T09:22:01.064Z,14.90
2018-05-13T09:24:28.749Z,14.90
2018-05-13T09:26:57.135Z,14.80
2018-05-13T09:29:24.860Z,14.80
2018-05-13T09:31:52.474Z,14.80
2018-05-13T09:34:20.032Z,14.80
2018-05-13T09:36:47.603Z,14.80
2018-05-13T09:39:15.244Z,14.70
2018-05-13T09:41:43.516Z,14.70
2018-05-13T09:44:11.095Z,14.70
2018-05-13T09:46:38.658Z,14.70
2018-05-13T09:49:06.229Z,14.60
2018-05-13T09:51:33.797Z,14.70
2018-05-13T09:54:01.430Z,14.60
2018-05-13T09:56:28.955Z,14.50
2018-05-13T09:58:57.385Z,14.60
2018-05-13T10:01:25.003Z,14.50
2018-05-13T10:03:53.472Z,14.60
2018-05-13T10:06:21.780Z,14.60
2018-05-13T10:08:49.318Z,14.60
2018-05-13T10:11:17.613Z,14.70
2018-05-13T10:13:45.122Z,14.70
2018-05-13T10:16:12.636Z,14.80
2018-05-13T10:18:40.168Z,14.90
2018-05-13T10:21:07.676Z,14.90
2018-05-13T10:23:35.197Z,15.20
2018-05-13T10:26:02.724Z,15.50
2018-05-13T10:28:31.024Z,15.60
2018-05-13T10:30:58.590Z,15.60
2018-05-13T10:33:26.115Z,15.60
2018-05-13T10:35:54.416Z,15.60
2018-05-13T10:38:21.921Z,15.60
2018-05-13T10:40:49.541Z,15.60
2018-05-13T10:43:17.106Z,15.70
2018-05-13T10:45:44.654Z,15.60
2018-05-13T10:48:12.195Z,15.60
2018-05-13T10:50:39.741Z,15.60
2018-05-13T10:53:08.137Z,15.60
2018-05-13T10:55:37.429Z,15.50
2018-05-13T10:58:05.751Z,15.30
2018-05-13T11:00:33.294Z,15.30
2018-05-13T11:03:00.801Z,15.20
2018-05-13T11:05:29.133Z,15.00
2018-05-13T11:07:56.674Z,15.00
2018-05-13T11:10:24.270Z,14.90
2018-05-13T11:12:51.795Z,14.90
2018-05-13T11:15:19.332Z,15.00
2018-05-13T11:17:47.629Z,14.80
2018-05-13T11:20:15.268Z,14.80
2018-05-13T11:22:42.726Z,14.70
2018-05-13T11:25:11.086Z,14.60
2018-05-13T11:27:38.768Z,14.60
2018-05-13T11:30:07.053Z,14.50
2018-05-13T11:32:34.587Z,14.50
2018-05-13T11:35:03.037Z,14.50
2018-05-13T11:37:30.554Z,14.50
2018-05-13T11:39:58.158Z,14.40
2018-05-13T11:42:25.651Z,14.40
2018-05-13T11:44:54.087Z,14.40
2018-05-13T11:47:21.596Z,14.30
2018-05-13T11:49:49.107Z,14.30
2018-05-13T11:52:16.707Z,14.30
2018-05-13T11:54:44.240Z,14.30
2018-05-13T11:57:11.791Z,14.10
2018-05-13T11:59:39.361Z,14.20
2018-05-13T12:02:07.850Z,14.20
2018-05-13T12:04:35.338Z,14.10
2018-05-13T12:07:02.895Z,14.30
2018-05-13T12:09:30.471Z,14.30
2018-05-13T12:11:58.017Z,14.20
2018-05-13T12:14:25.559Z,14.20
2018-05-13T12:16:53.809Z,14.10
2018-05-13T12:19:21.386Z,14.10
2018-05-13T12:21:49.645Z,14.00
2018-05-13T12:24:17.930Z,14.10
2018-05-13T12:26:46.209Z,14.10
2018-05-13T12:29:14.606Z,14.10
2018-05-13T12:31:42.127Z,14.10
2018-05-13T12:34:10.433Z,14.10
2018-05-13T12:36:37.985Z,14.00
2018-05-13T12:39:06.305Z,14.10
2018-05-13T12:41:33.820Z,14.10
2018-05-13T12:44:01.368Z,14.10
2018-05-13T12:46:29.647Z,14.20
2018-05-13T12:48:57.432Z,14.10
2018-05-13T12:51:24.943Z,14.10
2018-05-13T12:53:53.277Z,14.30
2018-05-13T12:56:20.877Z,14.30
2018-05-13T12:58:48.405Z,14.20
2018-05-13T13:01:15.937Z,14.20
2018-05-13T13:03:43.521Z,14.30
2018-05-13T13:06:11.002Z,14.30
2018-05-13T13:08:38.513Z,14.10
2018-05-13T13:11:06.072Z,14.20
2018-05-13T13:13:33.631Z,14.40
2018-05-13T13:16:01.145Z,14.30
2018-05-13T13:18:28.690Z,14.60
2018-05-13T13:20:56.217Z,14.30
2018-05-13T13:23:23.733Z,14.40
2018-05-13T13:25:52.197Z,14.60
2018-05-13T13:28:19.660Z,14.60
2018-05-13T13:30:48.097Z,14.40
2018-05-13T13:33:15.597Z,14.40
2018-05-13T13:35:43.917Z,14.40
2018-05-13T13:38:11.465Z,14.40
2018-05-13T13:40:39.005Z,14.40
2018-05-13T13:43:07.284Z,14.50
2018-05-13T13:45:36.130Z,14.40
2018-05-13T13:48:03.770Z,14.40
2018-05-13T13:50:31.353Z,14.30
2018-05-13T13:52:58.861Z,14.40
2018-05-13T13:55:26.388Z,14.40
2018-05-13T13:57:55.012Z,14.40
2018-05-13T14:00:22.538Z,14.30
2018-05-13T14:02:50.941Z,14.20
2018-05-13T14:05:18.453Z,14.20
2018-05-13T14:07:46.878Z,14.50
2018-05-13T14:10:14.455Z,14.40
2018-05-13T14:12:41.996Z,14.40
2018-05-13T14:15:09.586Z,14.60
2018-05-13T14:17:37.135Z,14.50
2018-05-13T14:20:04.764Z,14.60
2018-05-13T14:22:32.230Z,14.70
2018-05-13T14:24:59.738Z,14.60
2018-05-13T14:27:27.349Z,14.60
2018-05-13T14:29:54.847Z,14.50
2018-05-13T14:32:22.502Z,14.50
2018-05-13T14:34:50.032Z,14.40
2018-05-13T14:37:17.560Z,14.50
2018-05-13T14:39:46.049Z,14.50
2018-05-13T14:42:13.496Z,14.40
2018-05-13T14:44:41.109Z,14.50
2018-05-13T14:47:08.644Z,14.40
2018-05-13T14:49:36.208Z,14.40
2018-05-13T14:52:03.829Z,14.50
2018-05-13T14:54:32.182Z,14.50
2018-05-13T14:56:59.685Z,14.50
2018-05-13T14:59:27.197Z,14.50
2018-05-13T15:01:54.714Z,14.50
2018-05-13T15:04:22.255Z,14.40
2018-05-13T15:06:49.782Z,14.40
2018-05-13T15:09:18.077Z,14.30
2018-05-13T15:11:45.584Z,14.30
2018-05-13T15:14:13.086Z,14.40
2018-05-13T15:16:40.908Z,14.40
2018-05-13T15:19:08.457Z,14.30
2018-05-13T15:21:36.079Z,14.40
2018-05-13T15:24:03.615Z,14.40
2018-05-13T15:26:31.894Z,14.40
2018-05-13T15:29:00.282Z,14.40
2018-05-13T15:31:27.841Z,14.40
2018-05-13T15:33:55.355Z,14.40
2018-05-13T15:36:22.913Z,14.50
2018-05-13T15:38:50.537Z,14.50
2018-05-13T15:41:18.069Z,14.60
2018-05-13T15:43:45.584Z,14.60
2018-05-13T15:46:13.184Z,14.70
2018-05-13T15:48:40.750Z,14.70
2018-05-13T15:51:08.319Z,14.60
2018-05-13T15:53:35.873Z,14.50
2018-05-13T15:56:03.384Z,14.60
2018-05-13T15:58:30.949Z,14.60
2018-05-13T16:00:58.474Z,14.60
2018-05-13T16:03:26.017Z,14.50
2018-05-13T16:05:59.777Z,14.50
2018-05-13T16:08:28.093Z,14.50
2018-05-13T16:10:55.611Z,14.50
2018-05-13T16:13:23.153Z,14.50
2018-05-13T16:15:50.698Z,14.40
2018-05-13T16:18:18.276Z,14.50
2018-05-13T16:20:45.870Z,14.60
2018-05-13T16:23:14.149Z,14.60
2018-05-13T16:25:41.689Z,14.60
2018-05-13T16:28:09.999Z,14.70
2018-05-13T16:30:37.559Z,14.60
2018-05-13T16:33:05.821Z,14.60
2018-05-13T16:35:33.384Z,14.60
2018-05-13T16:38:00.902Z,14.60
2018-05-13T16:40:28.482Z,14.50
2018-05-13T16:42:56.799Z,14.40
2018-05-13T16:45:24.320Z,14.40
2018-05-13T16:47:51.844Z,14.60
2018-05-13T16:50:19.383Z,14.50
2018-05-13T16:52:46.924Z,14.50
2018-05-13T16:55:14.501Z,14.50
2018-05-13T16:57:42.056Z,14.50
2018-05-13T17:00:09.574Z,14.50
2018-05-13T17:02:37.119Z,14.50
2018-05-13T17:05:05.499Z,14.50
2018-05-13T17:07:33.770Z,14.50
2018-05-13T17:10:02.080Z,14.50
2018-05-13T17:12:29.603Z,14.50
2018-05-13T17:14:57.909Z,14.50
2018-05-13T17:17:25.533Z,14.50
2018-05-13T17:19:52.955Z,14.50
2018-05-13T17:22:20.473Z,14.50
2018-05-13T17:24:47.997Z,14.50
2018-05-13T17:27:15.534Z,14.50
2018-05-13T17:29:43.124Z,14.50
2018-05-13T17:32:10.610Z,14.50
2018-05-13T17:34:38.130Z,14.50
2018-05-13T17:37:06.449Z,14.60
2018-05-13T17:39:33.996Z,14.60
2018-05-13T17:42:01.558Z,14.60
2018-05-13T17:44:29.070Z,14.60
2018-05-13T17:46:56.595Z,14.50
2018-05-13T17:49:24.170Z,14.60
2018-05-13T17:51:51.683Z,14.50
2018-05-13T17:54:19.202Z,14.60
2018-05-13T17:56:46.747Z,14.50
2018-05-13T17:59:14.302Z,14.50
2018-05-13T18:01:41.888Z,14.50
2018-05-13T18:04:09.472Z,14.60
2018-05-13T18:06:36.996Z,14.60
2018-05-13T18:09:05.387Z,14.60
2018-05-13T18:11:33.774Z,14.50
2018-05-13T18:14:01.245Z,14.50
2018-05-13T18:16:28.772Z,14.50
2018-05-13T18:18:56.329Z,14.60
2018-05-13T18:21:23.920Z,14.70
2018-05-13T18:23:51.452Z,14.70
2018-05-13T18:26:19.768Z,14.40
